createdAt,value
2022-10-07T00:01:12.745Z,7.95
2022-10-07T00:03:41.596Z,8.80
2022-10-07T00:06:13.350Z,8.93
2022-10-07T00:08:43.474Z,10.05
2022-10-07T00:11:13.857Z,8.23
2022-10-07T00:13:44.954Z,9.05
2022-10-07T00:16:15.571Z,10.68
2022-10-07T00:18:44.508Z,9.25
2022-10-07T00:21:14.327Z,8.32
2022-10-07T00:23:43.608Z,7.60
2022-10-07T00:26:13.724Z,11.95
2022-10-07T00:28:42.319Z,10.05
2022-10-07T00:31:15.549Z,9.88
2022-10-07T00:33:43.925Z,13.00
2022-10-07T00:36:16.943Z,8.73
2022-10-07T00:38:46.308Z,11.25
2022-10-07T00:41:19.637Z,7.60
2022-10-07T00:43:47.881Z,8.18
2022-10-07T00:46:26.691Z,8.40
2022-10-07T00:48:55.274Z,8.32
2022-10-07T00:51:23.520Z,8.85
2022-10-07T00:53:53.498Z,6.85
2022-10-07T00:56:22.679Z,9.35
2022-10-07T00:58:52.290Z,9.32
2022-10-07T01:01:22.478Z,7.57
2022-10-07T01:03:50.698Z,9.10
2022-10-07T01:06:19.263Z,8.60
2022-10-07T01:08:48.788Z,6.75
2022-10-07T01:11:26.517Z,8.75
2022-10-07T01:14:04.369Z,8.45
2022-10-07T01:16:40.729Z,10.23
2022-10-07T01:19:26.723Z,8.68
2022-10-07T01:22:06.566Z,7.65
2022-10-07T01:24:43.271Z,10.52
2022-10-07T01:27:16.389Z,9.80
2022-10-07T01:29:56.078Z,7.70
2022-10-07T01:32:32.445Z,9.13
2022-10-07T01:35:05.932Z,10.65
2022-10-07T01:37:39.124Z,8.27
2022-10-07T01:42:40.518Z,6.93
2022-10-07T01:45:11.811Z,9.32
2022-10-07T01:47:40.605Z,7.38
2022-10-07T01:50:12.917Z,9.77
2022-10-07T01:52:52.904Z,7.82
2022-10-07T01:55:46.593Z,7.68
2022-10-07T01:58:35.367Z,9.50
2022-10-07T02:01:14.373Z,4.65
2022-10-07T02:04:18.910Z,10.95
2022-10-07T02:06:52.433Z,7.55
2022-10-07T02:09:29.660Z,8.20
2022-10-07T02:12:05.956Z,6.35
2022-10-07T02:14:46.111Z,8.85
2022-10-07T02:17:18.979Z,5.93
2022-10-07T02:19:53.418Z,6.35
2022-10-07T02:22:25.403Z,7.72
2022-10-07T02:24:55.528Z,6.55
2022-10-07T02:27:28.168Z,7.05
2022-10-07T02:30:04.153Z,7.38
2022-10-07T02:32:36.164Z,10.50
2022-10-07T02:35:09.101Z,6.97
2022-10-07T02:37:40.565Z,6.80
2022-10-07T02:40:12.068Z,8.93
2022-10-07T02:42:45.722Z,5.88
2022-10-07T02:45:25.853Z,8.30
2022-10-07T02:47:59.828Z,6.50
2022-10-07T02:50:35.452Z,8.25
2022-10-07T02:53:05.656Z,7.88
2022-10-07T02:55:34.947Z,7.57
2022-10-07T02:58:07.782Z,5.50
2022-10-07T03:00:41.567Z,5.40
2022-10-07T03:03:10.629Z,8.00
2022-10-07T03:05:49.307Z,5.78
2022-10-07T03:08:18.671Z,11.18
2022-10-07T03:10:46.945Z,6.70
2022-10-07T03:13:16.462Z,9.13
2022-10-07T03:15:50.805Z,9.95
2022-10-07T03:18:28.209Z,9.43
2022-10-07T03:21:10.033Z,6.78
2022-10-07T03:23:38.433Z,6.93
2022-10-07T03:26:06.757Z,6.07
2022-10-07T03:28:37.520Z,6.47
2022-10-07T03:31:11.719Z,8.30
2022-10-07T03:33:45.580Z,7.65
2022-10-07T03:36:13.756Z,8.63
2022-10-07T03:38:44.595Z,5.75
2022-10-07T03:41:14.074Z,10.18
2022-10-07T03:43:42.118Z,8.60
2022-10-07T03:46:13.179Z,8.10
2022-10-07T03:48:42.208Z,9.65
2022-10-07T03:51:10.172Z,6.43
2022-10-07T03:53:40.293Z,6.45
2022-10-07T03:56:09.020Z,8.73
2022-10-07T03:58:38.359Z,6.63
2022-10-07T04:01:12.587Z,5.63
2022-10-07T04:03:47.446Z,7.70
2022-10-07T04:06:15.621Z,4.72
2022-10-07T04:08:44.838Z,7.75
2022-10-07T04:11:13.626Z,5.55
2022-10-07T04:13:45.164Z,6.30
2022-10-07T04:16:14.814Z,9.82
2022-10-07T04:18:43.812Z,5.78
2022-10-07T04:21:12.875Z,7.30
2022-10-07T04:23:42.418Z,7.30
2022-10-07T04:26:11.377Z,4.95
2022-10-07T04:28:43.548Z,7.03
2022-10-07T04:31:16.258Z,5.10
2022-10-07T04:33:47.373Z,5.57
2022-10-07T04:36:21.218Z,5.90
2022-10-07T04:41:27.538Z,8.07
2022-10-07T04:43:58.009Z,10.80
2022-10-07T04:46:30.260Z,12.88
2022-10-07T04:49:06.672Z,19.92
2022-10-07T04:51:35.449Z,28.17
2022-10-07T04:54:03.774Z,22.10
2022-10-07T04:56:38.788Z,16.73
2022-10-07T04:59:09.403Z,23.67
2022-10-07T05:01:41.039Z,30.92
2022-10-07T05:04:11.589Z,39.15
2022-10-07T05:06:39.619Z,29.50
2022-10-07T05:09:08.474Z,22.05
2022-10-07T05:11:41.125Z,26.67
2022-10-07T05:14:14.541Z,22.83
2022-10-07T05:16:44.416Z,21.83
2022-10-07T05:19:14.073Z,23.30
2022-10-07T05:21:42.289Z,27.38
2022-10-07T05:24:10.529Z,22.52
2022-10-07T05:26:40.200Z,42.85
2022-10-07T05:29:10.231Z,26.65
2022-10-07T05:31:46.854Z,41.80
2022-10-07T05:34:20.272Z,32.88
2022-10-07T05:36:48.756Z,35.50
2022-10-07T05:39:17.527Z,27.63
2022-10-07T05:41:51.669Z,28.50
2022-10-07T05:44:25.089Z,24.70
2022-10-07T05:46:57.017Z,24.98
2022-10-07T05:49:25.598Z,23.45
2022-10-07T05:51:53.671Z,26.70
2022-10-07T05:54:22.459Z,28.80
2022-10-07T05:56:50.518Z,26.85
2022-10-07T05:59:20.194Z,28.98
2022-10-07T06:01:49.048Z,29.08
2022-10-07T06:04:22.648Z,33.83
2022-10-07T06:06:53.783Z,34.63
2022-10-07T06:09:39.263Z,32.63
2022-10-07T06:12:34.161Z,30.55
2022-10-07T06:15:07.033Z,36.20
2022-10-07T06:17:35.334Z,32.53
2022-10-07T06:20:09.051Z,35.08
2022-10-07T06:22:37.056Z,29.10
2022-10-07T06:25:06.660Z,31.80
2022-10-07T06:27:36.040Z,28.58
2022-10-07T06:30:07.531Z,24.95
2022-10-07T06:32:35.524Z,24.70
2022-10-07T06:35:04.207Z,30.05
2022-10-07T06:37:33.977Z,41.63
2022-10-07T06:40:02.687Z,32.58
2022-10-07T06:42:33.601Z,41.78
2022-10-07T06:45:11.731Z,33.58
2022-10-07T06:47:40.305Z,39.67
2022-10-07T06:50:09.329Z,51.22
2022-10-07T06:52:43.342Z,52.15
2022-10-07T06:55:12.210Z,48.17
2022-10-07T06:57:46.580Z,37.28
2022-10-07T07:00:18.296Z,37.78
2022-10-07T07:02:47.674Z,30.45
2022-10-07T07:05:16.688Z,37.70
2022-10-07T07:07:48.339Z,36.05
2022-10-07T07:10:17.398Z,33.63
2022-10-07T07:12:49.020Z,29.58
2022-10-07T07:15:18.164Z,31.33
2022-10-07T07:17:46.666Z,30.45
2022-10-07T07:20:15.358Z,28.45
2022-10-07T07:22:43.484Z,28.17
2022-10-07T07:25:13.224Z,28.38
2022-10-07T07:27:41.743Z,29.40
2022-10-07T07:30:13.292Z,28.27
2022-10-07T07:32:43.938Z,29.15
2022-10-07T07:35:11.937Z,30.80
2022-10-07T07:37:40.021Z,23.95
2022-10-07T07:40:09.948Z,28.30
2022-10-07T07:42:39.409Z,23.85
2022-10-07T07:45:10.567Z,34.15
2022-10-07T07:47:38.971Z,27.08
2022-10-07T07:50:08.920Z,26.58
2022-10-07T07:52:37.137Z,24.77
2022-10-07T07:55:07.739Z,27.00
2022-10-07T07:57:36.967Z,24.85
2022-10-07T08:00:11.628Z,31.98
2022-10-07T08:02:42.266Z,25.85
2022-10-07T08:05:15.818Z,23.85
2022-10-07T08:07:46.911Z,25.80
2022-10-07T08:10:16.164Z,22.15
2022-10-07T08:12:44.264Z,27.05
2022-10-07T08:15:15.088Z,23.83
2022-10-07T08:17:44.330Z,25.67
2022-10-07T08:20:13.701Z,25.63
2022-10-07T08:22:45.875Z,24.85
2022-10-07T08:25:16.765Z,23.13
2022-10-07T08:27:45.963Z,23.95
2022-10-07T08:30:16.034Z,24.67
2022-10-07T08:32:44.340Z,24.40
2022-10-07T08:35:12.440Z,24.45
2022-10-07T08:37:40.407Z,25.48
2022-10-07T08:40:14.727Z,21.67
2022-10-07T08:42:44.902Z,24.60
2022-10-07T08:45:24.027Z,24.52
2022-10-07T08:47:53.351Z,22.95
2022-10-07T08:50:27.669Z,23.42
2022-10-07T08:52:59.988Z,22.98
2022-10-07T08:55:35.928Z,28.30
2022-10-07T08:58:35.912Z,22.40
2022-10-07T09:01:15.452Z,24.08
2022-10-07T09:03:51.538Z,22.77
2022-10-07T09:06:27.887Z,23.08
2022-10-07T09:09:02.226Z,24.42
2022-10-07T09:11:31.609Z,22.83
2022-10-07T09:14:04.789Z,25.15
2022-10-07T09:16:39.175Z,23.55
2022-10-07T09:19:12.614Z,24.13
2022-10-07T09:24:20.051Z,23.60
2022-10-07T09:26:48.621Z,25.60
2022-10-07T09:29:20.468Z,20.92
2022-10-07T09:31:50.158Z,25.65
2022-10-07T09:34:23.252Z,21.60
2022-10-07T09:37:16.504Z,25.65
2022-10-07T09:39:46.217Z,22.17
2022-10-07T09:42:29.155Z,24.77
2022-10-07T09:45:01.785Z,23.00
2022-10-07T09:47:37.261Z,23.33
2022-10-07T09:50:05.781Z,22.60
2022-10-07T09:52:33.792Z,20.10
2022-10-07T09:55:37.449Z,22.30
2022-10-07T09:58:07.425Z,20.33
2022-10-07T10:00:44.097Z,20.23
2022-10-07T10:03:14.265Z,21.92
2022-10-07T10:05:52.981Z,23.52
2022-10-07T10:08:25.140Z,25.23
2022-10-07T10:10:55.422Z,19.98
2022-10-07T10:13:30.355Z,18.63
2022-10-07T10:15:59.122Z,21.92
2022-10-07T10:18:32.609Z,23.20
2022-10-07T10:26:28.312Z,18.58
2022-10-07T10:29:13.801Z,22.73
2022-10-07T10:31:59.585Z,23.75
2022-10-07T10:34:41.045Z,24.55
2022-10-07T10:37:19.256Z,21.90
2022-10-07T10:40:02.986Z,21.75
2022-10-07T10:45:18.333Z,21.15
2022-10-07T10:48:00.888Z,22.02
2022-10-07T10:50:36.130Z,20.10
2022-10-07T10:53:16.286Z,19.35
2022-10-07T10:56:02.604Z,20.67
2022-10-07T10:58:44.293Z,21.88
2022-10-07T11:01:21.837Z,18.83
2022-10-07T11:04:25.097Z,21.80
2022-10-07T11:07:00.520Z,18.20
2022-10-07T11:09:40.274Z,22.45
2022-10-07T11:12:21.207Z,20.48
2022-10-07T11:14:57.885Z,17.27
2022-10-07T11:17:31.738Z,17.02
2022-10-07T11:20:08.470Z,18.02
2022-10-07T11:22:43.194Z,15.85
2022-10-07T11:25:21.992Z,18.30
2022-10-07T11:27:53.080Z,17.55
2022-10-07T11:30:23.285Z,16.10
2022-10-07T11:32:56.077Z,15.35
2022-10-07T11:35:29.686Z,14.57
2022-10-07T11:38:06.460Z,14.57
2022-10-07T11:40:41.306Z,14.82
2022-10-07T11:43:15.931Z,15.75
2022-10-07T11:45:49.903Z,16.10
2022-10-07T11:48:23.838Z,15.82
2022-10-07T11:50:56.035Z,19.52
2022-10-07T11:53:28.412Z,15.57
2022-10-07T11:56:01.012Z,12.43
2022-10-07T11:58:32.910Z,16.35
2022-10-07T12:01:53.598Z,16.45
2022-10-07T12:04:38.924Z,15.50
2022-10-07T12:07:56.490Z,13.98
2022-10-07T12:10:31.747Z,19.25
2022-10-07T12:13:03.402Z,14.38
2022-10-07T12:15:38.962Z,15.23
2022-10-07T12:18:31.169Z,18.23
2022-10-07T12:21:09.617Z,16.33
2022-10-07T12:23:45.134Z,16.88
2022-10-07T12:26:51.508Z,17.23
2022-10-07T12:29:53.369Z,14.75
2022-10-07T12:32:47.358Z,15.13
2022-10-07T12:35:53.986Z,19.65
2022-10-07T12:38:31.566Z,15.27
2022-10-07T12:41:25.717Z,16.80
2022-10-07T12:44:06.292Z,16.27
2022-10-07T12:46:42.966Z,14.88
2022-10-07T12:49:17.460Z,18.00
2022-10-07T12:51:46.390Z,17.67
2022-10-07T12:54:20.255Z,15.70
2022-10-07T12:56:50.250Z,18.00
2022-10-07T12:59:49.695Z,17.73
2022-10-07T13:02:57.275Z,14.52
2022-10-07T13:05:58.380Z,16.05
2022-10-07T13:09:05.613Z,16.27
2022-10-07T13:12:09.300Z,16.55
2022-10-07T13:14:51.214Z,16.13
2022-10-07T13:17:31.238Z,14.93
2022-10-07T13:20:07.942Z,23.35
2022-10-07T13:22:36.607Z,20.65
2022-10-07T13:25:08.290Z,19.23
2022-10-07T13:27:38.492Z,19.63
2022-10-07T13:30:29.107Z,22.63
2022-10-07T13:32:57.083Z,19.00
2022-10-07T13:35:33.167Z,22.13
2022-10-07T13:38:03.312Z,22.10
2022-10-07T13:40:35.524Z,22.00
2022-10-07T13:43:07.199Z,23.13
2022-10-07T13:45:45.210Z,25.23
2022-10-07T13:48:17.149Z,22.10
2022-10-07T13:50:45.979Z,20.45
2022-10-07T13:53:20.982Z,19.30
2022-10-07T13:55:49.080Z,22.23
2022-10-07T13:58:17.503Z,20.25
2022-10-07T14:00:48.931Z,22.35
2022-10-07T14:03:18.139Z,22.55
2022-10-07T14:05:48.868Z,28.50
2022-10-07T14:08:21.311Z,21.52
2022-10-07T14:10:54.374Z,25.83
2022-10-07T14:13:22.876Z,25.25
2022-10-07T14:15:56.301Z,90.32
2022-10-07T14:20:54.046Z,23.60
2022-10-07T14:23:28.267Z,21.15
2022-10-07T14:25:58.240Z,20.70
2022-10-07T14:28:31.043Z,23.42
2022-10-07T14:31:37.349Z,20.88
2022-10-07T14:34:34.390Z,25.17
2022-10-07T14:37:08.126Z,25.92
2022-10-07T14:39:38.226Z,22.42
2022-10-07T14:42:11.917Z,21.50
2022-10-07T14:44:43.853Z,19.52
2022-10-07T14:47:16.041Z,23.92
2022-10-07T14:49:44.548Z,26.75
2022-10-07T14:52:17.766Z,23.95
2022-10-07T14:54:45.896Z,25.95
2022-10-07T14:57:13.854Z,25.85
2022-10-07T14:59:42.151Z,19.25
2022-10-07T15:02:12.054Z,22.33
2022-10-07T15:04:45.214Z,18.60
2022-10-07T15:07:14.259Z,18.98
2022-10-07T15:09:43.173Z,27.17
2022-10-07T15:12:11.971Z,19.35
2022-10-07T15:14:39.994Z,21.20
2022-10-07T15:17:08.286Z,22.90
2022-10-07T15:19:36.734Z,18.30
2022-10-07T15:22:06.662Z,21.65
2022-10-07T15:24:34.765Z,18.48
2022-10-07T15:27:02.795Z,25.40
2022-10-07T15:29:31.044Z,20.48
2022-10-07T15:31:58.982Z,25.08
2022-10-07T15:34:27.032Z,24.42
2022-10-07T15:36:54.995Z,23.42
2022-10-07T15:39:24.335Z,25.02
2022-10-07T15:41:53.290Z,20.70
2022-10-07T15:44:23.010Z,18.63
2022-10-07T15:46:54.674Z,20.50
2022-10-07T15:49:23.151Z,21.17
2022-10-07T15:51:51.439Z,21.88
2022-10-07T15:54:20.815Z,23.55
2022-10-07T15:56:50.862Z,20.63
2022-10-07T15:59:19.031Z,21.52
2022-10-07T16:01:49.634Z,27.15
2022-10-07T16:04:18.427Z,19.13
2022-10-07T16:06:51.254Z,23.80
2022-10-07T16:09:19.759Z,21.58
2022-10-07T16:11:48.535Z,23.00
2022-10-07T16:14:19.212Z,22.73
2022-10-07T16:16:47.362Z,24.77
2022-10-07T16:19:15.494Z,19.98
2022-10-07T16:21:44.318Z,23.10
2022-10-07T16:24:16.078Z,21.20
2022-10-07T16:26:45.668Z,20.17
2022-10-07T16:29:32.715Z,25.60
2022-10-07T16:32:02.385Z,19.52
2022-10-07T16:34:30.494Z,20.00
2022-10-07T16:36:59.528Z,19.58
2022-10-07T16:39:27.633Z,21.25
2022-10-07T16:41:56.641Z,23.80
2022-10-07T16:44:24.831Z,21.98
2022-10-07T16:46:56.697Z,21.20
2022-10-07T16:49:28.008Z,20.63
2022-10-07T16:51:56.478Z,18.27
2022-10-07T16:54:24.727Z,22.23
2022-10-07T16:56:53.695Z,23.25
2022-10-07T16:59:24.200Z,22.23
2022-10-07T17:01:54.679Z,18.83
2022-10-07T17:04:23.351Z,21.58
2022-10-07T17:06:53.033Z,22.95
2022-10-07T17:09:24.407Z,18.40
2022-10-07T17:11:52.405Z,21.20
2022-10-07T17:14:21.709Z,24.65
2022-10-07T17:16:51.460Z,20.90
2022-10-07T17:19:24.582Z,20.10
2022-10-07T17:21:55.710Z,25.83
2022-10-07T17:25:13.945Z,20.25
2022-10-07T17:27:41.965Z,22.40
2022-10-07T17:30:11.361Z,21.17
2022-10-07T17:32:39.372Z,20.20
2022-10-07T17:35:08.756Z,19.35
2022-10-07T17:37:38.086Z,18.98
2022-10-07T17:40:06.984Z,22.67
2022-10-07T17:42:34.954Z,19.10
2022-10-07T17:45:04.599Z,19.20
2022-10-07T17:47:33.517Z,25.58
2022-10-07T17:50:01.470Z,26.27
2022-10-07T17:52:29.528Z,23.88
2022-10-07T17:54:58.968Z,21.08
2022-10-07T17:57:26.940Z,19.98
2022-10-07T17:59:55.330Z,19.88
2022-10-07T18:02:23.635Z,24.33
2022-10-07T18:04:51.897Z,24.08
2022-10-07T18:07:20.237Z,16.90
2022-10-07T18:09:48.227Z,24.13
2022-10-07T18:12:34.925Z,22.98
2022-10-07T18:15:21.211Z,24.20
2022-10-07T18:17:51.413Z,20.58
2022-10-07T18:20:19.858Z,23.85
2022-10-07T18:22:48.137Z,20.35
2022-10-07T18:25:16.127Z,21.80
2022-10-07T18:27:45.695Z,26.50
2022-10-07T18:30:14.061Z,26.77
2022-10-07T18:32:42.030Z,22.05
2022-10-07T18:35:10.205Z,28.77
2022-10-07T18:37:38.400Z,28.80
2022-10-07T18:40:07.840Z,30.33
2022-10-07T18:42:37.756Z,32.45
2022-10-07T18:45:08.197Z,30.67
2022-10-07T18:47:36.152Z,26.48
2022-10-07T18:50:04.346Z,25.35
2022-10-07T18:52:32.314Z,24.92
2022-10-07T18:55:00.253Z,24.17
2022-10-07T18:57:28.217Z,28.02
2022-10-07T18:59:56.181Z,25.92
2022-10-07T19:02:25.558Z,25.40
2022-10-07T19:04:53.514Z,30.30
2022-10-07T19:07:21.550Z,32.15
2022-10-07T19:09:49.522Z,29.90
2022-10-07T19:12:35.110Z,30.98
2022-10-07T19:15:03.241Z,30.10
2022-10-07T19:17:32.565Z,30.27
2022-10-07T19:20:02.368Z,25.23
2022-10-07T19:22:30.329Z,29.95
2022-10-07T19:25:30.487Z,31.02
2022-10-07T19:27:58.601Z,28.73
2022-10-07T19:30:26.593Z,30.10
2022-10-07T19:32:56.396Z,29.25
2022-10-07T19:35:24.390Z,33.90
2022-10-07T19:37:52.489Z,29.35
2022-10-07T19:40:20.441Z,28.08
2022-10-07T19:42:48.392Z,30.23
2022-10-07T19:45:16.385Z,30.92
2022-10-07T19:47:48.209Z,32.97
2022-10-07T19:50:20.111Z,28.92
2022-10-07T19:52:48.142Z,27.05
2022-10-07T19:55:16.352Z,27.00
2022-10-07T19:57:44.718Z,28.83
2022-10-07T20:00:13.709Z,29.33
2022-10-07T20:02:41.851Z,29.10
2022-10-07T20:05:10.016Z,36.28
2022-10-07T20:07:39.325Z,28.10
2022-10-07T20:10:08.527Z,30.00
2022-10-07T20:12:37.637Z,26.70
2022-10-07T20:15:06.114Z,29.42
2022-10-07T20:17:34.166Z,27.45
2022-10-07T20:20:02.160Z,25.42
2022-10-07T20:22:30.192Z,27.90
2022-10-07T20:24:59.650Z,24.45
2022-10-07T20:27:27.715Z,28.73
2022-10-07T20:29:58.337Z,29.15
2022-10-07T20:32:27.541Z,29.30
2022-10-07T20:34:56.177Z,31.40
2022-10-07T20:37:24.185Z,28.92
2022-10-07T20:40:09.834Z,30.85
2022-10-07T20:42:42.218Z,30.30
2022-10-07T20:45:12.559Z,24.67
2022-10-07T20:47:40.492Z,21.75
2022-10-07T20:50:08.767Z,23.15
2022-10-07T20:52:37.230Z,22.33
2022-10-07T20:55:07.831Z,22.30
2022-10-07T20:57:38.040Z,20.88
2022-10-07T21:00:16.108Z,27.75
2022-10-07T21:02:45.401Z,26.40
2022-10-07T21:05:13.698Z,26.50
2022-10-07T21:07:42.749Z,25.02
2022-10-07T21:10:10.720Z,27.33
2022-10-07T21:12:40.317Z,25.15
2022-10-07T21:15:10.840Z,26.05
2022-10-07T21:17:40.662Z,26.98
2022-10-07T21:20:09.339Z,25.90
2022-10-07T21:22:37.490Z,23.60
2022-10-07T21:25:06.382Z,25.63
2022-10-07T21:27:34.416Z,27.52
2022-10-07T21:30:02.392Z,28.02
2022-10-07T21:32:31.663Z,27.73
2022-10-07T21:34:59.592Z,26.45
2022-10-07T21:37:28.298Z,27.20
2022-10-07T21:39:56.207Z,28.10
2022-10-07T21:42:25.122Z,29.95
2022-10-07T21:44:53.704Z,25.42
2022-10-07T21:47:21.651Z,26.42
2022-10-07T21:49:51.075Z,26.67
2022-10-07T21:52:19.342Z,25.17
2022-10-07T21:54:47.272Z,26.70
2022-10-07T21:57:15.230Z,24.25
2022-10-07T21:59:43.169Z,25.20
2022-10-07T22:02:11.220Z,24.75
2022-10-07T22:04:39.349Z,24.60
2022-10-07T22:07:26.994Z,22.80
2022-10-07T22:09:54.944Z,29.08
2022-10-07T22:12:22.929Z,37.25
2022-10-07T22:14:51.227Z,48.53
2022-10-07T22:17:19.184Z,44.88
2022-10-07T22:19:47.450Z,64.60
2022-10-07T22:22:16.754Z,57.13
2022-10-07T22:24:44.725Z,64.70
2022-10-07T22:27:12.777Z,64.78
2022-10-07T22:29:40.737Z,57.90
2022-10-07T22:32:08.687Z,54.60
2022-10-07T22:34:54.366Z,46.03
2022-10-07T22:37:23.713Z,46.05
2022-10-07T22:39:51.726Z,42.95
2022-10-07T22:42:19.700Z,44.17
2022-10-07T22:44:47.748Z,32.00
2022-10-07T22:47:16.550Z,32.58
2022-10-07T22:49:44.490Z,37.78
2022-10-07T22:52:12.448Z,42.15
2022-10-07T22:54:41.739Z,32.88
2022-10-07T22:57:09.733Z,36.83
2022-10-07T22:59:38.770Z,35.28
2022-10-07T23:02:06.764Z,30.92
2022-10-07T23:04:34.755Z,29.65
2022-10-07T23:07:02.786Z,35.28
2022-10-07T23:09:31.779Z,31.05
2022-10-07T23:12:01.110Z,29.67
2022-10-07T23:14:29.107Z,32.78
2022-10-07T23:16:57.105Z,44.80
2022-10-07T23:19:25.271Z,41.85
2022-10-07T23:21:53.205Z,54.95
2022-10-07T23:24:21.127Z,33.20
2022-10-07T23:26:49.105Z,56.15
2022-10-07T23:29:18.640Z,73.03
2022-10-07T23:31:47.198Z,48.85
2022-10-07T23:34:15.437Z,67.82
2022-10-07T23:36:43.596Z,44.63
2022-10-07T23:39:11.705Z,47.85
2022-10-07T23:41:39.796Z,77.72
2022-10-07T23:44:07.820Z,43.92
2022-10-07T23:46:37.141Z,33.50
2022-10-07T23:49:05.449Z,29.52
2022-10-07T23:51:34.101Z,23.33
2022-10-07T23:54:05.313Z,22.73
2022-10-07T23:56:33.996Z,21.90
2022-10-07T23:59:02.430Z,20.67
